Time;durP1;ratioP1;P1;durP2;ratioP2;P2;SDS_P1;SDS_P2;PMS_P1;PMS_P2;Temp;Humidity;BMP_temperature;BMP_pressure;BME280_temperature;BME280_humidity;BME280_pressure;Samples;Min_cycle;Max_cycle;Signal;HPM_P1;HPM_P2
2021/01/12 00:00:41;;;;;;;16.10;7.00;;;14.90;90.70;;;;;;5091442;28;20031;-69
2021/01/12 00:03:08;;;;;;;11.27;7.00;;;14.60;91.00;;;;;;5090904;28;20039;-69
2021/01/12 00:05:35;;;;;;;13.27;7.60;;;14.30;91.90;;;;;;5091432;28;20043;-69
2021/01/12 00:08:07;;;;;;;8.15;5.70;;;14.00;92.60;;;;;;5091661;28;20031;-69
2021/01/12 00:10:35;;;;;;;8.85;6.68;;;13.90;93.70;;;;;;5091670;28;20388;-69
2021/01/12 00:13:02;;;;;;;9.43;6.72;;;13.80;93.70;;;;;;5096541;28;20028;-70
2021/01/12 00:15:29;;;;;;;10.73;7.03;;;13.60;93.90;;;;;;5095361;28;20518;-70
2021/01/12 00:17:56;;;;;;;8.30;6.00;;;13.30;94.80;;;;;;5094845;28;20029;-69
2021/01/12 00:20:23;;;;;;;11.50;6.22;;;13.10;94.50;;;;;;5093830;28;20047;-69
2021/01/12 00:22:50;;;;;;;8.05;5.75;;;13.00;95.10;;;;;;5094908;28;20024;-70
2021/01/12 00:25:17;;;;;;;7.88;5.72;;;12.80;95.20;;;;;;5094665;28;20407;-69
2021/01/12 00:27:44;;;;;;;9.95;5.38;;;12.60;95.60;;;;;;5095139;28;20024;-70
2021/01/12 00:30:11;;;;;;;7.70;5.68;;;12.50;95.80;;;;;;5094854;28;20032;-69
2021/01/12 00:32:38;;;;;;;6.88;5.28;;;12.50;96.00;;;;;;5094991;28;20433;-69
2021/01/12 00:35:05;;;;;;;8.80;5.38;;;12.30;96.10;;;;;;5095190;28;20443;-70
2021/01/12 00:37:32;;;;;;;7.75;5.13;;;12.20;96.40;;;;;;5095500;28;20039;-70
2021/01/12 00:39:59;;;;;;;7.00;5.00;;;12.10;96.70;;;;;;5094730;28;20020;-70
2021/01/12 00:42:26;;;;;;;7.18;5.10;;;12.10;97.20;;;;;;5094375;28;20514;-70
2021/01/12 00:44:53;;;;;;;9.55;5.72;;;12.00;97.30;;;;;;5075198;28;20032;-69
2021/01/12 00:47:23;;;;;;;7.45;5.07;;;11.90;97.80;;;;;;5094590;28;20032;-70
2021/01/12 00:49:50;;;;;;;8.80;5.85;;;11.90;97.60;;;;;;5093815;28;20040;-72
2021/01/12 00:52:17;;;;;;;7.90;4.72;;;11.80;97.60;;;;;;5094733;28;20037;-70
2021/01/12 00:54:44;;;;;;;9.82;4.68;;;11.70;97.90;;;;;;5095618;28;20476;-70
2021/01/12 00:57:11;;;;;;;7.65;4.40;;;11.70;98.00;;;;;;5094773;28;20519;-68
2021/01/12 00:59:38;;;;;;;7.82;5.13;;;11.60;98.20;;;;;;5093629;28;20043;-70
2021/01/12 01:02:05;;;;;;;6.53;4.32;;;11.60;98.60;;;;;;5093470;28;20055;-70
2021/01/12 01:04:32;;;;;;;6.03;4.35;;;11.40;98.50;;;;;;5094256;28;20028;-69
2021/01/12 01:06:59;;;;;;;8.77;5.47;;;11.30;98.70;;;;;;5093924;28;20036;-70
2021/01/12 01:09:27;;;;;;;7.30;4.93;;;11.30;98.70;;;;;;5094232;28;20024;-69
2021/01/12 01:11:54;;;;;;;7.13;4.97;;;11.30;98.70;;;;;;5096522;28;20024;-69
2021/01/12 01:14:22;;;;;;;7.30;5.20;;;11.30;98.60;;;;;;5095656;28;20020;-69
2021/01/12 01:17:09;;;;;;;5.97;4.30;;;11.20;98.70;;;;;;5078199;28;20040;-70
2021/01/12 01:19:35;;;;;;;7.10;4.65;;;11.10;99.00;;;;;;5076410;28;20062;-70
2021/01/12 01:22:02;;;;;;;6.45;4.68;;;11.10;98.90;;;;;;5093894;28;20364;-69
2021/01/12 01:24:29;;;;;;;6.38;4.32;;;11.10;99.20;;;;;;5088352;28;20029;-68
2021/01/12 01:26:57;;;;;;;6.57;4.38;;;11.10;99.20;;;;;;5073667;28;20044;-68
2021/01/12 01:29:24;;;;;;;5.47;4.47;;;11.10;99.30;;;;;;5075302;28;20020;-68
2021/01/12 01:31:51;;;;;;;7.57;4.95;;;11.00;99.40;;;;;;5073794;28;20035;-69
2021/01/12 01:34:18;;;;;;;8.90;4.82;;;11.00;99.50;;;;;;5073259;28;20032;-70
2021/01/12 01:36:45;;;;;;;7.78;4.78;;;11.00;99.50;;;;;;5073186;28;20024;-70
2021/01/12 01:39:12;;;;;;;5.75;3.95;;;11.10;99.40;;;;;;5071641;28;20040;-70
2021/01/12 01:41:39;;;;;;;6.43;4.32;;;11.10;99.40;;;;;;5072511;28;20036;-69
2021/01/12 01:44:07;;;;;;;5.95;4.05;;;11.10;99.40;;;;;;5072877;28;20385;-69
2021/01/12 01:46:34;;;;;;;6.80;4.75;;;11.10;99.50;;;;;;5073630;28;20067;-69
2021/01/12 01:49:01;;;;;;;6.65;4.43;;;11.00;99.60;;;;;;5073968;28;20461;-69
2021/01/12 01:51:29;;;;;;;9.98;4.90;;;10.90;99.90;;;;;;5070729;28;20040;-69
2021/01/12 01:53:57;;;;;;;6.35;4.90;;;10.80;99.90;;;;;;5071694;28;20033;-69
2021/01/12 01:56:27;;;;;;;8.57;6.18;;;10.80;99.90;;;;;;5053235;28;20393;-70
2021/01/12 01:58:54;;;;;;;9.93;5.00;;;10.80;99.90;;;;;;5071292;28;20044;-69
2021/01/12 02:01:21;;;;;;;8.82;5.30;;;10.80;99.90;;;;;;5071665;28;20032;-69
2021/01/12 02:04:09;;;;;;;7.88;5.50;;;10.70;99.90;;;;;;5071894;28;20036;-69
2021/01/12 02:06:38;;;;;;;14.90;6.07;;;10.70;99.90;;;;;;5070752;28;20052;-70
2021/01/12 02:09:30;;;;;;;9.93;5.63;;;10.70;99.90;;;;;;5071613;28;20033;-68
2021/01/12 02:11:58;;;;;;;7.80;5.68;;;10.60;99.90;;;;;;5071654;28;20021;-71
2021/01/12 02:14:28;;;;;;;8.77;6.30;;;10.60;99.90;;;;;;5072126;28;20377;-69
2021/01/12 02:16:57;;;;;;;11.38;7.13;;;10.60;99.90;;;;;;5071702;28;20048;-70
2021/01/12 02:19:28;;;;;;;13.25;8.40;;;10.60;99.90;;;;;;5072143;28;20369;-70
2021/01/12 02:22:01;;;;;;;11.90;7.95;;;10.60;99.90;;;;;;5072130;28;20384;-71
2021/01/12 02:24:30;;;;;;;9.75;7.40;;;10.60;99.90;;;;;;5064530;28;20052;-71
2021/01/12 02:26:57;;;;;;;12.77;8.50;;;10.50;99.90;;;;;;5070704;28;20382;-70
2021/01/12 02:29:24;;;;;;;14.98;8.48;;;10.50;99.90;;;;;;5071959;28;20031;-70
2021/01/12 02:31:51;;;;;;;11.45;8.60;;;10.60;99.90;;;;;;5072253;28;20029;-70
2021/01/12 02:34:20;;;;;;;12.27;8.43;;;10.50;99.90;;;;;;5071597;28;20020;-70
2021/01/12 02:36:47;;;;;;;16.67;9.07;;;10.50;99.90;;;;;;5071014;28;20052;-71
2021/01/12 02:39:15;;;;;;;16.88;10.93;;;10.50;99.90;;;;;;5071072;28;20036;-71
2021/01/12 02:41:42;;;;;;;22.00;16.92;;;10.60;99.90;;;;;;5070600;28;20067;-70
2021/01/12 02:44:22;;;;;;;18.00;10.18;;;10.70;99.90;;;;;;5074836;28;20375;-71
2021/01/12 02:46:54;;;;;;;13.70;10.10;;;10.60;99.90;;;;;;5075796;28;20037;-71
2021/01/12 02:49:22;;;;;;;13.30;9.55;;;10.50;99.90;;;;;;5071216;28;20039;-70
2021/01/12 02:51:48;;;;;;;21.45;13.10;;;10.50;99.90;;;;;;5053176;28;20040;-69
2021/01/12 02:54:15;;;;;;;14.38;9.95;;;10.60;99.90;;;;;;5070518;28;20024;-69
2021/01/12 02:56:42;;;;;;;15.88;9.95;;;10.70;99.90;;;;;;5070682;28;20381;-69
2021/01/12 02:59:09;;;;;;;14.15;9.02;;;10.80;99.90;;;;;;5072688;28;20028;-68
2021/01/12 03:01:36;;;;;;;11.68;8.50;;;10.90;99.90;;;;;;5071047;28;20031;-68
2021/01/12 03:04:03;;;;;;;13.05;8.40;;;10.90;99.90;;;;;;5072262;28;20035;-68
2021/01/12 03:06:30;;;;;;;10.38;7.20;;;10.90;99.90;;;;;;5079251;28;20044;-70
2021/01/12 03:08:57;;;;;;;11.93;8.65;;;10.80;99.90;;;;;;5077416;28;20124;-69
2021/01/12 03:11:25;;;;;;;11.68;7.65;;;10.80;99.90;;;;;;5070873;28;20040;-69
2021/01/12 03:13:52;;;;;;;11.82;7.47;;;10.80;99.90;;;;;;5071409;28;20024;-68
2021/01/12 03:16:19;;;;;;;13.52;6.95;;;10.80;99.90;;;;;;5072565;28;20204;-68
2021/01/12 03:18:46;;;;;;;12.02;7.53;;;10.70;99.90;;;;;;5071153;28;20045;-68
2021/01/12 03:21:13;;;;;;;7.72;6.20;;;10.70;99.90;;;;;;5068598;28;20040;-68
2021/01/12 03:23:39;;;;;;;9.85;6.20;;;10.80;99.90;;;;;;5053658;28;20040;-67
2021/01/12 03:26:06;;;;;;;7.93;5.63;;;10.80;99.90;;;;;;5071289;28;20056;-69
2021/01/12 03:28:33;;;;;;;8.88;5.28;;;10.80;99.90;;;;;;5050478;28;20049;-68
2021/01/12 03:31:01;;;;;;;9.32;5.93;;;10.90;99.90;;;;;;5060454;28;20016;-69
2021/01/12 03:33:31;;;;;;;10.88;6.45;;;11.00;99.90;;;;;;5069608;28;20041;-69
2021/01/12 03:35:58;;;;;;;10.32;5.72;;;11.00;99.90;;;;;;5052470;28;20037;-69
2021/01/12 03:38:25;;;;;;;8.63;5.03;;;10.90;99.90;;;;;;5071000;28;20021;-68
2021/01/12 03:40:54;;;;;;;6.70;4.78;;;10.80;99.90;;;;;;5069988;28;20484;-68
2021/01/12 03:43:21;;;;;;;6.75;4.82;;;10.80;99.90;;;;;;5072278;28;20532;-69
2021/01/12 03:45:48;;;;;;;6.57;4.82;;;10.70;99.90;;;;;;5074552;28;20044;-69
2021/01/12 03:48:15;;;;;;;8.20;4.65;;;10.70;99.90;;;;;;5073336;28;20051;-69
2021/01/12 03:50:42;;;;;;;8.23;5.95;;;10.60;99.90;;;;;;5075142;28;20036;-68
2021/01/12 03:53:09;;;;;;;7.25;5.22;;;10.60;99.90;;;;;;5074671;28;20380;-68
2021/01/12 03:55:36;;;;;;;7.38;4.85;;;10.60;99.90;;;;;;5072769;28;20047;-68
2021/01/12 03:58:03;;;;;;;6.68;5.40;;;10.50;99.90;;;;;;5074386;28;20024;-69
2021/01/12 04:00:29;;;;;;;9.32;6.93;;;10.40;99.90;;;;;;5074693;28;20036;-69
2021/01/12 04:02:56;;;;;;;13.73;7.10;;;10.30;99.90;;;;;;5074688;28;20025;-69
2021/01/12 04:05:23;;;;;;;11.88;7.90;;;10.30;99.90;;;;;;5073945;28;20037;-68
2021/01/12 04:07:50;;;;;;;15.48;7.65;;;10.20;99.90;;;;;;5074273;28;20064;-68
2021/01/12 04:10:17;;;;;;;12.55;8.27;;;10.10;99.90;;;;;;5073345;28;20037;-68
2021/01/12 04:12:44;;;;;;;10.38;8.32;;;10.00;99.90;;;;;;5073899;28;20039;-68
2021/01/12 04:15:11;;;;;;;22.20;14.07;;;9.90;99.90;;;;;;5074298;28;20345;-68
2021/01/12 04:17:38;;;;;;;16.58;11.10;;;9.90;99.90;;;;;;5074199;28;20024;-68
2021/01/12 04:20:06;;;;;;;23.38;14.88;;;9.90;99.90;;;;;;5073065;28;20374;-69
2021/01/12 04:22:33;;;;;;;12.18;8.80;;;9.90;99.90;;;;;;5074144;28;20036;-68
2021/01/12 04:25:00;;;;;;;19.23;13.57;;;9.90;99.90;;;;;;5073250;28;20051;-68
2021/01/12 04:27:26;;;;;;;14.27;9.93;;;9.90;99.90;;;;;;5073114;28;20079;-68
2021/01/12 04:29:53;;;;;;;13.35;9.63;;;9.90;99.90;;;;;;5072230;28;20150;-68
2021/01/12 04:32:20;;;;;;;12.60;8.95;;;9.80;99.90;;;;;;5074197;28;20028;-68
2021/01/12 04:34:47;;;;;;;12.98;9.13;;;9.80;99.90;;;;;;5073853;28;20031;-68
2021/01/12 04:37:14;;;;;;;25.95;15.40;;;9.80;99.90;;;;;;5073660;28;20373;-69
2021/01/12 04:39:41;;;;;;;21.85;14.77;;;9.80;99.90;;;;;;5072852;28;20047;-68
2021/01/12 04:42:08;;;;;;;20.42;11.00;;;9.90;99.90;;;;;;5073331;28;20072;-68
2021/01/12 04:44:35;;;;;;;16.83;11.07;;;9.80;99.90;;;;;;5073867;28;20025;-68
2021/01/12 04:47:04;;;;;;;16.35;11.55;;;9.80;99.90;;;;;;5072637;28;20048;-69
2021/01/12 04:49:31;;;;;;;11.95;8.55;;;9.80;99.90;;;;;;5073036;28;20495;-70
2021/01/12 04:51:59;;;;;;;14.60;10.23;;;9.80;99.90;;;;;;5073720;28;20031;-70
2021/01/12 04:54:33;;;;;;;13.63;7.40;;;9.90;99.90;;;;;;5073637;28;20036;-69
2021/01/12 04:57:01;;;;;;;10.57;7.45;;;9.90;99.90;;;;;;5075199;28;20029;-70
2021/01/12 04:59:33;;;;;;;17.17;11.82;;;10.00;99.90;;;;;;5071458;28;20016;-69
2021/01/12 05:02:00;;;;;;;11.07;7.55;;;10.00;99.90;;;;;;5073773;28;20021;-70
2021/01/12 05:04:27;;;;;;;8.90;6.45;;;10.10;99.90;;;;;;5072337;28;20043;-70
2021/01/12 05:06:55;;;;;;;12.13;7.70;;;10.10;99.90;;;;;;5077368;28;20048;-70
2021/01/12 05:09:26;;;;;;;13.77;7.70;;;10.10;99.90;;;;;;5075892;28;20134;-70
2021/01/12 05:11:55;;;;;;;12.93;7.00;;;10.10;99.90;;;;;;5076513;28;20034;-70
2021/01/12 05:14:24;;;;;;;14.32;7.82;;;10.10;99.90;;;;;;5074657;28;20473;-70
2021/01/12 05:16:52;;;;;;;9.32;5.70;;;10.00;99.90;;;;;;5073610;28;20028;-70
2021/01/12 05:19:28;;;;;;;7.78;4.93;;;10.10;99.90;;;;;;5073682;28;20032;-69
2021/01/12 05:22:04;;;;;;;8.48;4.43;;;10.40;99.90;;;;;;5071718;28;20043;-70
2021/01/12 05:24:41;;;;;;;8.27;5.40;;;10.40;99.90;;;;;;5073585;28;20598;-68
2021/01/12 05:27:12;;;;;;;13.45;7.28;;;10.20;99.90;;;;;;5055952;28;20052;-68
2021/01/12 05:29:41;;;;;;;47.23;26.97;;;10.10;99.90;;;;;;5070412;28;20039;-70
2021/01/12 05:32:12;;;;;;;46.17;24.10;;;10.00;99.90;;;;;;5074422;28;20033;-69
2021/01/12 05:34:39;;;;;;;67.45;34.38;;;9.90;99.90;;;;;;5072407;28;20045;-69
2021/01/12 05:37:07;;;;;;;8.02;4.82;;;9.90;99.90;;;;;;5072754;28;20047;-69
2021/01/12 05:39:42;;;;;;;6.90;4.75;;;9.90;99.90;;;;;;5072843;28;20024;-70
2021/01/12 05:42:11;;;;;;;10.00;6.10;;;9.80;99.90;;;;;;5071943;28;20372;-69
2021/01/12 05:44:41;;;;;;;8.43;4.30;;;9.80;99.90;;;;;;5072999;28;20036;-69
2021/01/12 05:47:15;;;;;;;7.00;4.10;;;10.00;99.90;;;;;;5054810;28;20044;-69
2021/01/12 05:49:44;;;;;;;6.75;3.17;;;10.00;99.90;;;;;;5076971;28;20423;-69
2021/01/12 05:52:11;;;;;;;7.43;4.55;;;10.00;99.90;;;;;;5074472;28;20024;-69
2021/01/12 05:54:42;;;;;;;6.75;4.45;;;9.90;99.90;;;;;;5072481;28;20447;-69
2021/01/12 05:57:09;;;;;;;7.13;4.60;;;9.80;99.90;;;;;;5075088;28;20027;-69
2021/01/12 05:59:38;;;;;;;13.27;7.63;;;9.80;99.90;;;;;;5072513;28;20032;-69
2021/01/12 06:02:19;;;;;;;8.02;5.00;;;9.80;99.90;;;;;;5072228;28;20033;-69
2021/01/12 06:04:50;;;;;;;5.70;3.90;;;9.80;99.90;;;;;;5073277;28;20032;-69
2021/01/12 06:07:18;;;;;;;11.38;5.10;;;9.80;99.90;;;;;;5072088;28;20045;-69
2021/01/12 06:09:46;;;;;;;14.13;5.72;;;9.80;99.90;;;;;;5075557;28;20543;-70
2021/01/12 06:12:16;;;;;;;5.43;3.75;;;9.90;99.90;;;;;;5072152;28;20445;-70
2021/01/12 06:14:50;;;;;;;5.03;3.30;;;10.00;99.90;;;;;;5072096;28;20047;-69
2021/01/12 06:17:17;;;;;;;5.13;3.10;;;10.10;99.90;;;;;;5072270;28;20024;-69
2021/01/12 06:19:47;;;;;;;6.57;3.50;;;10.40;99.90;;;;;;5071043;28;20044;-69
2021/01/12 06:22:18;;;;;;;4.57;3.22;;;10.50;99.90;;;;;;5071492;28;20037;-70
2021/01/12 06:24:57;;;;;;;6.95;3.92;;;10.70;99.90;;;;;;5071350;28;20048;-69
2021/01/12 06:27:28;;;;;;;6.20;3.40;;;10.60;99.90;;;;;;5050573;28;20501;-69
2021/01/12 06:29:58;;;;;;;4.15;3.30;;;10.60;99.90;;;;;;5053005;28;20044;-69
2021/01/12 06:32:27;;;;;;;4.88;3.05;;;10.60;99.90;;;;;;5053073;28;20028;-69
2021/01/12 06:34:58;;;;;;;5.60;3.47;;;10.60;99.90;;;;;;5051648;28;20037;-69
2021/01/12 06:37:25;;;;;;;3.90;2.85;;;10.70;99.90;;;;;;5051832;28;20381;-69
2021/01/12 06:39:56;;;;;;;5.80;3.28;;;10.60;99.90;;;;;;5051084;28;20033;-69
2021/01/12 06:42:26;;;;;;;5.88;4.10;;;10.60;99.90;;;;;;5051462;28;20021;-69
2021/01/12 06:44:55;;;;;;;6.63;4.28;;;10.80;99.90;;;;;;5050489;28;20044;-69
2021/01/12 06:47:27;;;;;;;8.48;4.50;;;10.80;99.90;;;;;;5050712;28;20436;-68
2021/01/12 06:50:08;;;;;;;4.68;3.50;;;10.80;99.90;;;;;;5051543;28;20036;-69
2021/01/12 06:52:45;;;;;;;4.13;3.28;;;10.80;99.90;;;;;;5050242;28;20409;-69
2021/01/12 06:55:14;;;;;;;5.93;3.45;;;10.80;99.90;;;;;;5051003;28;20032;-69
2021/01/12 06:58:08;;;;;;;5.70;3.10;;;10.90;99.90;;;;;;5051758;28;20032;-69
2021/01/12 07:00:37;;;;;;;5.15;3.63;;;10.90;99.90;;;;;;5037710;28;20037;-69
2021/01/12 07:03:08;;;;;;;6.93;4.15;;;10.90;99.90;;;;;;5051397;28;20489;-69
2021/01/12 07:05:47;;;;;;;8.07;4.40;;;10.90;99.90;;;;;;5051437;28;20033;-69
2021/01/12 07:08:14;;;;;;;7.20;4.70;;;10.80;99.90;;;;;;5051606;28;20317;-69
2021/01/12 07:10:47;;;;;;;6.72;3.25;;;10.70;99.90;;;;;;5050879;28;20029;-68
2021/01/12 07:13:15;;;;;;;6.70;3.38;;;10.70;99.90;;;;;;5050702;28;20519;-68
2021/01/12 07:15:47;;;;;;;6.30;3.75;;;10.70;99.90;;;;;;5049708;28;20044;-68
2021/01/12 07:18:21;;;;;;;4.30;2.83;;;10.60;99.90;;;;;;5051069;28;20040;-69
2021/01/12 07:20:50;;;;;;;3.85;2.97;;;10.60;99.90;;;;;;5051148;28;20493;-69
2021/01/12 07:23:17;;;;;;;4.93;3.03;;;10.60;99.90;;;;;;5053576;28;20044;-69
2021/01/12 07:25:45;;;;;;;7.95;4.60;;;10.60;99.90;;;;;;5059666;28;20063;-69
2021/01/12 07:28:20;;;;;;;8.35;4.80;;;10.70;99.90;;;;;;5074697;28;20032;-68
2021/01/12 07:30:56;;;;;;;7.10;4.75;;;10.90;99.90;;;;;;5075222;28;20452;-68
2021/01/12 07:33:24;;;;;;;7.68;4.85;;;10.90;99.90;;;;;;5074745;28;20043;-68
2021/01/12 07:35:53;;;;;;;6.88;4.22;;;10.90;99.90;;;;;;5080459;28;20024;-67
2021/01/12 07:38:23;;;;;;;8.43;5.13;;;10.90;99.90;;;;;;5082599;28;20017;-68
2021/01/12 07:40:51;;;;;;;6.95;4.55;;;10.90;99.90;;;;;;5058900;28;20048;-68
2021/01/12 07:43:23;;;;;;;8.23;5.18;;;11.00;99.90;;;;;;5089972;28;20039;-67
2021/01/12 07:45:52;;;;;;;8.05;3.70;;;11.00;99.90;;;;;;5074270;28;20055;-68
2021/01/12 07:48:19;;;;;;;6.28;3.67;;;10.90;99.90;;;;;;5074295;28;20396;-67
2021/01/12 07:50:48;;;;;;;5.97;3.53;;;10.90;99.90;;;;;;5075038;28;20032;-68
2021/01/12 07:53:15;;;;;;;3.58;2.90;;;10.80;99.90;;;;;;5057285;28;20047;-68
2021/01/12 07:55:44;;;;;;;4.88;3.40;;;10.70;99.90;;;;;;5076343;28;20037;-67
2021/01/12 07:58:13;;;;;;;5.68;3.15;;;10.70;99.90;;;;;;5076023;28;20039;-67
2021/01/12 08:00:41;;;;;;;6.82;3.30;;;10.50;99.90;;;;;;5075033;28;20041;-67
2021/01/12 08:03:08;;;;;;;4.55;3.30;;;10.50;99.90;;;;;;5073921;28;20472;-68
2021/01/12 08:05:35;;;;;;;4.50;3.38;;;10.40;99.90;;;;;;5074028;28;20392;-67
2021/01/12 08:08:08;;;;;;;4.80;3.08;;;10.40;99.90;;;;;;5074173;28;20056;-67
2021/01/12 08:10:40;;;;;;;4.47;2.55;;;10.40;99.90;;;;;;5074843;28;20380;-67
2021/01/12 08:13:11;;;;;;;8.60;2.85;;;10.30;99.90;;;;;;5074704;28;20032;-67
2021/01/12 08:15:43;;;;;;;7.00;4.40;;;10.30;99.90;;;;;;5074878;28;20017;-68
2021/01/12 08:18:20;;;;;;;6.65;4.28;;;10.20;99.90;;;;;;5075964;28;20039;-68
2021/01/12 08:20:54;;;;;;;6.22;4.70;;;10.10;99.90;;;;;;5076056;28;20069;-67
2021/01/12 08:23:21;;;;;;;9.68;4.70;;;10.00;99.90;;;;;;5063918;28;20346;-67
2021/01/12 08:25:49;;;;;;;5.70;4.07;;;9.90;99.90;;;;;;5074230;28;20048;-69
2021/01/12 08:28:15;;;;;;;7.95;5.05;;;9.80;99.90;;;;;;5057988;28;20033;-68
2021/01/12 08:30:43;;;;;;;7.25;4.72;;;9.70;99.90;;;;;;5054100;28;20017;-68
2021/01/12 08:33:26;;;;;;;8.75;4.72;;;9.50;99.90;;;;;;5036275;28;20358;-67
2021/01/12 08:36:13;;;;;;;7.38;4.68;;;9.40;99.90;;;;;;5054399;28;20021;-67
2021/01/12 08:38:43;;;;;;;7.65;4.03;;;9.20;99.90;;;;;;5067404;28;20044;-68
2021/01/12 08:41:11;;;;;;;6.75;3.72;;;9.20;99.90;;;;;;5075182;28;20016;-67
2021/01/12 08:43:40;;;;;;;8.52;4.05;;;9.20;99.90;;;;;;5074424;28;20028;-68
2021/01/12 08:46:07;;;;;;;5.40;4.00;;;9.10;99.90;;;;;;5073917;28;20021;-68
2021/01/12 08:48:46;;;;;;;8.23;5.00;;;9.10;99.90;;;;;;5082109;28;20043;-68
2021/01/12 08:51:18;;;;;;;8.80;4.50;;;9.10;99.90;;;;;;5071961;28;20413;-66
2021/01/12 08:53:49;;;;;;;;;;;9.10;99.90;;;;;;5073853;28;20024;-67
2021/01/12 08:56:17;;;;;;;6.70;4.78;;;9.20;99.90;;;;;;5072603;28;19931;-67
2021/01/12 08:58:43;;;;;;;7.32;3.90;;;9.40;99.90;;;;;;5073344;28;20036;-67
2021/01/12 09:01:14;;;;;;;7.00;3.92;;;9.30;99.90;;;;;;5075161;28;20037;-67
2021/01/12 09:03:43;;;;;;;9.90;4.63;;;9.30;99.90;;;;;;5073933;28;20032;-67
2021/01/12 09:06:21;;;;;;;10.18;5.63;;;9.30;99.90;;;;;;5069401;28;20041;-67
2021/01/12 09:08:50;;;;;;;11.02;5.82;;;9.50;99.90;;;;;;5073001;28;20057;-67
2021/01/12 09:11:19;;;;;;;15.25;8.27;;;9.50;99.90;;;;;;5073500;28;20390;-67
2021/01/12 09:13:46;;;;;;;13.90;7.55;;;9.70;99.90;;;;;;5073030;28;20039;-67
2021/01/12 09:16:19;;;;;;;11.73;6.57;;;9.60;99.90;;;;;;5072012;28;20047;-67
2021/01/12 09:18:45;;;;;;;10.60;6.50;;;9.50;99.90;;;;;;5073489;28;20024;-67
2021/01/12 09:21:12;;;;;;;10.98;7.22;;;9.50;99.90;;;;;;5074357;28;20025;-67
2021/01/12 09:23:41;;;;;;;10.75;7.15;;;9.50;99.90;;;;;;5076689;28;20381;-68
2021/01/12 09:26:10;;;;;;;14.43;8.48;;;9.50;99.90;;;;;;5074514;28;20040;-68
2021/01/12 09:28:39;;;;;;;13.95;8.68;;;9.50;99.90;;;;;;5057449;28;20040;-66
2021/01/12 09:31:11;;;;;;;10.27;7.70;;;9.50;99.90;;;;;;5071780;28;20041;-66
2021/01/12 09:33:39;;;;;;;12.93;8.45;;;9.60;99.90;;;;;;5072488;28;20437;-66
2021/01/12 09:36:14;;;;;;;9.02;6.88;;;9.70;99.90;;;;;;5072556;28;20036;-67
2021/01/12 09:38:49;;;;;;;9.80;5.80;;;9.70;99.90;;;;;;5065399;28;20049;-66
2021/01/12 09:41:21;;;;;;;9.57;6.75;;;9.70;99.90;;;;;;5072349;28;20032;-67
2021/01/12 09:43:49;;;;;;;11.40;7.35;;;9.70;99.90;;;;;;5071527;28;20060;-67
2021/01/12 09:46:16;;;;;;;9.30;6.55;;;9.80;99.90;;;;;;5072225;28;20035;-67
2021/01/12 09:48:43;;;;;;;13.00;7.10;;;9.80;99.90;;;;;;5072626;28;20040;-67
2021/01/12 09:51:10;;;;;;;10.65;7.20;;;9.80;99.90;;;;;;5072740;28;20032;-67
2021/01/12 09:53:49;;;;;;;8.38;6.45;;;9.80;99.90;;;;;;5072259;28;20412;-68
2021/01/12 09:56:18;;;;;;;9.30;6.60;;;9.80;99.90;;;;;;5071841;28;20052;-68
2021/01/12 09:58:45;;;;;;;9.30;5.75;;;9.90;99.90;;;;;;5072595;28;20039;-67
2021/01/12 10:01:16;;;;;;;11.20;5.47;;;9.90;99.90;;;;;;5070730;28;20103;-67
2021/01/12 10:03:43;;;;;;;10.17;6.23;;;9.90;99.90;;;;;;5042960;28;20056;-68
2021/01/12 10:06:22;;;;;;;11.32;6.30;;;10.00;99.90;;;;;;5072499;28;20273;-67
2021/01/12 10:08:49;;;;;;;10.30;7.78;;;10.00;99.90;;;;;;5071282;28;20409;-68
2021/01/12 10:11:16;;;;;;;16.70;9.55;;;10.00;99.90;;;;;;5071062;28;20397;-68
2021/01/12 10:13:46;;;;;;;14.15;9.75;;;10.00;99.90;;;;;;5071129;28;20044;-68
2021/01/12 10:16:24;;;;;;;10.50;7.80;;;10.00;99.90;;;;;;5071875;28;20024;-68
2021/01/12 10:18:51;;;;;;;16.05;9.23;;;10.00;99.90;;;;;;5071804;28;20045;-68
2021/01/12 10:21:19;;;;;;;16.08;9.55;;;9.90;99.90;;;;;;5071465;28;20039;-68
2021/01/12 10:23:46;;;;;;;14.40;9.13;;;9.80;99.90;;;;;;5071845;28;20052;-68
2021/01/12 10:26:14;;;;;;;12.27;9.05;;;9.80;99.90;;;;;;5054008;28;20054;-68
2021/01/12 10:28:42;;;;;;;13.20;9.30;;;9.80;99.90;;;;;;5071999;28;20044;-68
2021/01/12 10:31:16;;;;;;;18.83;11.55;;;9.80;99.90;;;;;;5071514;28;20389;-68
2021/01/12 10:33:43;;;;;;;19.40;11.52;;;9.80;99.90;;;;;;5071151;28;20044;-68
2021/01/12 10:36:21;;;;;;;15.60;11.27;;;9.70;99.90;;;;;;5071045;28;20062;-68
2021/01/12 10:38:48;;;;;;;19.00;12.57;;;9.70;99.90;;;;;;5066772;28;20368;-68
2021/01/12 10:41:15;;;;;;;15.43;11.95;;;9.80;99.90;;;;;;5071802;28;20492;-68
2021/01/12 10:43:43;;;;;;;17.33;11.65;;;9.80;99.90;;;;;;5072231;28;20033;-68
2021/01/12 10:46:10;;;;;;;21.40;13.00;;;9.80;99.90;;;;;;5071328;28;20024;-68
2021/01/12 10:48:39;;;;;;;15.82;10.88;;;9.80;99.90;;;;;;5071174;28;20404;-69
2021/01/12 10:51:06;;;;;;;17.02;11.30;;;9.80;99.90;;;;;;5072067;28;20381;-68
2021/01/12 10:53:33;;;;;;;18.02;11.15;;;9.90;99.90;;;;;;5071425;28;20043;-68
2021/01/12 10:58:52;;;;;;;14.73;10.68;;;9.90;99.90;;;;;;5036703;28;20047;-69
2021/01/12 11:01:21;;;;;;;16.95;10.90;;;10.00;99.90;;;;;;5070883;28;20098;-68
2021/01/12 11:04:06;;;;;;;18.25;11.73;;;10.00;99.90;;;;;;5073225;28;20028;-69
2021/01/12 11:06:37;;;;;;;16.13;10.68;;;10.00;99.90;;;;;;5071407;28;20464;-68
2021/01/12 11:11:50;;;;;;;14.23;10.07;;;10.00;99.90;;;;;;5071460;28;20032;-67
2021/01/12 11:14:19;;;;;;;19.58;11.05;;;10.00;99.90;;;;;;5070906;28;20500;-68
2021/01/12 11:16:46;;;;;;;16.08;11.27;;;10.00;99.90;;;;;;5071385;28;20031;-68
2021/01/12 11:19:16;;;;;;;17.02;11.20;;;10.10;99.90;;;;;;5071329;28;20025;-69
2021/01/12 11:21:44;;;;;;;16.52;10.60;;;10.10;99.90;;;;;;5071088;28;20036;-69
2021/01/12 11:24:13;;;;;;;14.52;9.30;;;10.00;99.90;;;;;;5071550;28;20029;-69
2021/01/12 11:26:41;;;;;;;14.35;10.00;;;9.90;99.90;;;;;;5069963;28;20045;-69
2021/01/12 11:29:09;;;;;;;23.85;12.55;;;9.80;99.90;;;;;;5071293;28;20032;-69
2021/01/12 11:31:37;;;;;;;22.48;12.95;;;9.80;99.90;;;;;;5069213;28;20036;-69
2021/01/12 11:34:05;;;;;;;16.77;10.18;;;9.80;99.90;;;;;;5070958;28;20047;-71
2021/01/12 11:36:45;;;;;;;15.23;9.82;;;9.80;99.90;;;;;;5070703;28;20032;-69
2021/01/12 11:39:18;;;;;;;25.73;14.50;;;9.80;99.90;;;;;;5071319;28;20020;-69
2021/01/12 11:41:57;;;;;;;16.90;11.73;;;9.80;99.90;;;;;;5059971;28;20273;-69
2021/01/12 11:44:24;;;;;;;19.05;11.02;;;9.80;99.90;;;;;;5073156;28;20362;-72
2021/01/12 11:46:51;;;;;;;17.90;11.65;;;9.80;99.90;;;;;;5071964;28;20024;-69
2021/01/12 11:49:19;;;;;;;15.90;10.32;;;9.80;99.90;;;;;;5071084;28;20044;-69
2021/01/12 11:51:49;;;;;;;17.52;10.05;;;9.80;99.90;;;;;;5070548;28;20401;-68
2021/01/12 11:54:17;;;;;;;15.18;10.02;;;9.80;99.90;;;;;;5070103;28;20043;-68
2021/01/12 11:56:52;;;;;;;15.15;9.48;;;9.70;99.90;;;;;;5069846;28;20041;-69
2021/01/12 11:59:19;;;;;;;17.40;10.77;;;9.70;99.90;;;;;;5071271;28;20083;-68
2021/01/12 12:01:50;;;;;;;13.70;9.80;;;9.60;99.90;;;;;;5070151;28;20041;-68
2021/01/12 12:04:18;;;;;;;14.05;9.20;;;9.60;99.90;;;;;;5071460;28;20033;-69
2021/01/12 12:06:54;;;;;;;14.63;8.73;;;9.60;99.90;;;;;;5070870;28;20037;-68
2021/01/12 12:09:22;;;;;;;14.10;8.80;;;9.60;99.90;;;;;;5074809;28;20036;-68
2021/01/12 12:11:49;;;;;;;13.77;8.07;;;9.60;99.90;;;;;;5073959;28;20037;-68
2021/01/12 12:14:16;;;;;;;15.48;8.15;;;9.60;99.90;;;;;;5073918;28;20366;-68
2021/01/12 12:16:46;;;;;;;12.48;8.43;;;9.60;99.90;;;;;;5074108;28;20095;-67
2021/01/12 12:19:16;;;;;;;13.80;8.00;;;9.60;99.90;;;;;;5073843;28;20051;-67
2021/01/12 12:21:46;;;;;;;14.63;9.65;;;9.60;99.90;;;;;;5073970;28;20048;-67
2021/01/12 12:24:17;;;;;;;14.90;10.20;;;9.50;99.90;;;;;;5073210;28;20392;-67
2021/01/12 12:26:47;;;;;;;17.75;11.23;;;9.50;99.90;;;;;;5075323;28;20398;-67
2021/01/12 12:29:14;;;;;;;20.85;12.77;;;9.50;99.90;;;;;;5075251;28;20162;-67
2021/01/12 12:31:42;;;;;;;21.70;12.70;;;9.50;99.90;;;;;;5074200;28;20020;-67
2021/01/12 12:34:09;;;;;;;17.48;11.68;;;9.50;99.90;;;;;;5073560;28;20044;-67
2021/01/12 12:36:36;;;;;;;19.33;12.30;;;9.50;99.90;;;;;;5073032;28;20047;-67
2021/01/12 12:39:04;;;;;;;20.30;13.57;;;9.40;99.90;;;;;;5074140;28;20028;-66
2021/01/12 12:41:32;;;;;;;20.23;12.35;;;9.40;99.90;;;;;;5074226;28;20112;-68
2021/01/12 12:44:00;;;;;;;16.75;10.18;;;9.30;99.90;;;;;;5073555;28;20044;-68
2021/01/12 12:46:27;;;;;;;17.98;10.95;;;9.30;99.90;;;;;;5073311;28;20036;-68
2021/01/12 12:48:54;;;;;;;19.17;11.27;;;9.30;99.90;;;;;;5073708;28;20056;-68
2021/01/12 12:51:22;;;;;;;19.50;11.63;;;9.30;99.90;;;;;;5072738;28;20028;-68
2021/01/12 12:53:51;;;;;;;19.13;12.60;;;9.40;99.90;;;;;;5073536;28;20029;-68
2021/01/12 12:56:19;;;;;;;20.83;13.40;;;9.40;99.90;;;;;;5073407;28;20368;-69
2021/01/12 12:58:46;;;;;;;22.33;14.38;;;9.40;99.90;;;;;;5072986;28;20044;-68